Details From EBLG - Liege
To EBCI - Brussels South - Charleroi
Flight Number -
Tags Standard
Created
Modified
Stats Distance 42 nm / 78 km
Max Altitude 6,000 ft / 1,829 m
Waypoints 6
Social Downloads 3
Likes 0
Share VATSIM

Download

Looking for another format? Having issues loading an existing format? Contact us
Advertisement - Login to hide

Notes

CAX Pilots : both airports have nice scenery...!

Route

EBLG REMBA +50.51_+004.65 ONC CC EBCI

ID Type Via Altitude Latitude Longitude Leg Dist Tot Dist Heading (true) Name
O EBLG APT - 645 ft / 197 m 50.63754˚ 5.44444˚ - 0 nm - Liege
REMBA FIX - 6,000 ft / 1,829 m 50.66222˚ 4.91403˚ 20 nm 20 nm 274° / 274° -
+50.51_+004.65 DME - 3,000 ft / 914 m 50.51036˚ 4.65102˚ 13 nm 33 nm 228° / 228° -
ONC NDB - 1,786 ft / 544 m 50.48945˚ 4.55528˚ 3 nm 37 nm 251° / 251° CHARLEROI NDB
CC NDB - 840 ft / 256 m 50.46889˚ 4.48472˚ 2 nm 40 nm 245° / 245° CHARLEROI LCTR NDB
O EBCI APT - 614 ft / 187 m 50.46006˚ 4.45303˚ 1 nm 41 nm 246° / 246° Brussels South - Charleroi

Altitude Profile

Advertisement - Login to hide

EBLG

Details ICAO EBLG (LGG)
Name Liege
Region Belgium
Timezone Europe/Brussels (UTC+1.0)
Stats Elevation 645 ft / 197 m (AMSL)
Location 50.638120° 5.443140°
Runways 2
Magnetic Variation 1.428° E

METAR

EBLG 160120Z 32003KT 0900 R22L/1900N R22R/P2000N R04R/1400U -DZ FG VV001 02/02 Q1004 TEMPO 0500

Decode

TAF

TAF AMD EBLG 160034Z 1600/1706 29005KT 6000 SCT004 BKN008 TEMPO 1600/1603 0500 FG BKN001 PROB40 TEMPO 1603/1621 3000 SHRASN BKN004 SCT014CB

Decode

Departure Runways

ID Width Length Bearing (true) Bearing (mag) Surface Threshold Offset Overrun Length
05L 148 ft / 45 m 7,664 ft / 2,336 m 44.99° 43.56° Asphalt 151 ft / 46 m 0 ft / 0 m
05R 148 ft / 45 m 10,792 ft / 3,290 m 44.99° 43.56° Asphalt 151 ft / 46 m 0 ft / 0 m
23L 148 ft / 45 m 10,792 ft / 3,290 m 225.01° 223.58° Asphalt 151 ft / 46 m 0 ft / 0 m
23R 148 ft / 45 m 7,664 ft / 2,336 m 225.01° 223.58° Asphalt 151 ft / 46 m 0 ft / 0 m

EBCI

Details ICAO EBCI (CRL)
Name Brussels South - Charleroi
Region Belgium
Timezone Europe/Brussels (UTC+1.0)
Stats Elevation 614 ft / 187 m (AMSL)
Location 50.459947° 4.453125°
Runways 1
Magnetic Variation 1.134° E

METAR

EBCI 160120Z 31004KT 290V350 1500 BR SCT001 BKN002 02/02 Q1005 NOSIG

Decode

TAF

TAF AMD EBCI 160034Z 1600/1706 29005KT 6000 SCT004 BKN008 TEMPO 1600/1603 1200 BCFG BKN002 PROB40 TEMPO 1603/1620 3000 SHRASN BKN004 SCT014CB

Decode

Destination Runways

ID Width Length Bearing (true) Bearing (mag) Surface Threshold Offset Overrun Length
07 148 ft / 45 m 8,374 ft / 2,552 m 65.53° 64.40° Asphalt 1,476 ft / 450 m 0 ft / 0 m
25 148 ft / 45 m 8,374 ft / 2,552 m 245.55° 244.42° Asphalt 0 ft / 0 m 0 ft / 0 m

Approach Navaids

Runway Type Ident Frequency Range Bearing (true) Bearing (mag) Slope Elevation
25 Localiser IGC 110.90 MHz 18 nm / 33 km 245.54° 244.41° - 614 ft / 187 m (AMSL)
25 Glidescope IGC 110.90 MHz 10 nm / 19 km 245.54° 244.41° 3.00° 614 ft / 187 m (AMSL)

Popular Alternatives